Terminal Aerodrome Forecast
Issued by NWS

Home | Current Version | Previous Version | Text Only | Print | Product List | Glossary On
Versions: 1 2 3 4 5 6 7 8 9 10 11 12 13 14 15
000
FTUS44 KTSA 250219 AAA
TAFFYV
TAF AMD
KFYV 250219Z 2502/2524 17007KT P6SM VCTS SCT030CB BKN150
      TEMPO 2502/2505 3SM -TSRA OVC030CB
     FM250500 17007KT P6SM FEW030 BKN150
     FM250900 17008KT P6SM OVC020
     FM251800 18013G19KT P6SM BKN040=

USA.gov is the U.S. government's official web portal to all federal, state and local government web resources and services.